Time;durP1;ratioP1;P1;durP2;ratioP2;P2;SDS_P1;SDS_P2;PMS_P1;PMS_P2;Temp;Humidity;BMP_temperature;BMP_pressure;BME280_temperature;BME280_humidity;BME280_pressure;Samples;Min_cycle;Max_cycle;Signal;HPM_P1;HPM_P2
2021/11/20 00:02:24;;;;;;;1999.90;999.90;;;;;;;;;;4991340;28;20073;-92
2021/11/20 00:04:53;;;;;;;1999.90;999.90;;;;;;;;;;4983690;28;20103;-92
2021/11/20 00:07:21;;;;;;;1999.90;999.90;;;;;;;;;;4983653;28;20034;-92
2021/11/20 00:09:50;;;;;;;1999.90;999.90;;;;;;;;;;4985724;28;20442;-91
2021/11/20 00:12:21;;;;;;;1999.90;999.90;;;;;;;;;;5001971;28;20043;-90
2021/11/20 00:14:49;;;;;;;1999.90;999.90;;;;;;;;;;5002239;28;20411;-92
2021/11/20 00:17:16;;;;;;;1999.90;999.90;;;;;;;;;;4985942;28;20034;-91
2021/11/20 00:19:42;;;;;;;1999.90;999.90;;;;;;;;;;4985740;28;20068;-92
2021/11/20 00:22:21;;;;;;;1999.90;999.90;;;;;;;;;;4986259;28;20034;-92
2021/11/20 00:25:04;;;;;;;1999.90;999.90;;;;;;;;;;4986047;28;20041;-92
2021/11/20 00:27:34;;;;;;;1999.90;999.90;;;;;;;;;;4986043;28;20041;-92
2021/11/20 00:30:12;;;;;;;1999.90;999.90;;;;;;;;;;5002379;28;20032;-92
2021/11/20 00:32:41;;;;;;;1999.90;999.90;;;;;;;;;;4988057;28;20076;-91
2021/11/20 00:35:10;;;;;;;1999.90;999.90;;;;;;;;;;4985853;28;20441;-91
2021/11/20 00:37:37;;;;;;;1999.90;999.90;;;;;;;;;;4985850;28;20030;-93
2021/11/20 00:40:18;;;;;;;1999.90;999.90;;;;;;;;;;4985701;28;20102;-91
2021/11/20 00:42:47;;;;;;;1999.90;999.90;;;;;;;;;;4986466;28;20069;-92
2021/11/20 00:45:13;;;;;;;1999.90;999.90;;;;;;;;;;5001319;28;20124;-91
2021/11/20 00:47:40;;;;;;;1999.90;999.90;;;;;;;;;;5017657;28;20041;-92
2021/11/20 00:50:14;;;;;;;1999.90;999.90;;;;;;;;;;5017958;28;20029;-92
2021/11/20 00:52:43;;;;;;;1999.90;999.90;;;;;;;;;;5018099;28;20044;-92
2021/11/20 00:55:13;;;;;;;1999.90;999.90;;;;;;;;;;5017810;28;20450;-92
2021/11/20 00:57:42;;;;;;;1999.90;999.90;;;;;;;;;;5017680;28;20075;-91
2021/11/20 01:00:11;;;;;;;1999.90;999.90;;;;;;;;;;5003070;28;20034;-92
2021/11/20 01:02:37;;;;;;;1999.90;999.90;;;;;;;;;;4986513;28;20038;-92
2021/11/20 01:05:06;;;;;;;1999.90;999.90;;;;;;;;;;4998103;28;20030;-91
2021/11/20 01:07:35;;;;;;;1999.90;999.90;;;;;;;;;;5000778;28;20034;-92
2021/11/20 01:10:09;;;;;;;1999.90;999.90;;;;;;;;;;5017459;28;20071;-92
2021/11/20 01:12:36;;;;;;;1999.90;999.90;;;;;;;;;;5000902;28;20393;-92
2021/11/20 01:15:06;;;;;;;1999.90;999.90;;;;;;;;;;4984596;28;20032;-92
2021/11/20 01:17:34;;;;;;;1999.90;999.90;;;;;;;;;;5001056;28;20132;-91
2021/11/20 01:20:04;;;;;;;1999.90;999.90;;;;;;;;;;4984497;28;20501;-91
2021/11/20 01:22:30;;;;;;;1999.90;999.90;;;;;;;;;;5001274;28;20039;-92
2021/11/20 01:24:56;;;;;;;1999.90;999.90;;;;;;;;;;4997740;28;20030;-93
2021/11/20 01:27:23;;;;;;;1999.90;999.90;;;;;;;;;;4997013;28;20393;-91
2021/11/20 01:29:51;;;;;;;1999.90;999.90;;;;;;;;;;4980994;28;20038;-92
2021/11/20 01:32:17;;;;;;;1999.90;999.90;;;;;;;;;;4981266;28;20389;-92
2021/11/20 01:34:45;;;;;;;1999.90;999.90;;;;;;;;;;4981158;28;20496;-91
2021/11/20 01:37:13;;;;;;;1999.90;999.90;;;;;;;;;;4997346;28;20487;-90
2021/11/20 01:39:40;;;;;;;1999.90;999.90;;;;;;;;;;4981339;28;20030;-91
2021/11/20 01:42:08;;;;;;;1999.90;999.90;;;;;;;;;;4980463;28;20041;-91
2021/11/20 01:44:49;;;;;;;1999.90;999.90;;;;;;;;;;4999400;28;20068;-91
2021/11/20 01:47:21;;;;;;;1999.90;999.90;;;;;;;;;;5000950;28;20037;-90
2021/11/20 01:49:53;;;;;;;;;;;;;;;;;;5000506;28;20499;-91
2021/11/20 01:52:39;;;;;;;1999.90;999.90;;;;;;;;;;5000030;28;19909;-90
2021/11/20 01:55:13;;;;;;;1999.90;999.90;;;;;;;;;;5001476;28;20068;-91
2021/11/20 01:57:57;;;;;;;1999.90;999.90;;;;;;;;;;4999859;28;20037;-90
2021/11/20 02:00:51;;;;;;;1999.90;999.90;;;;;;;;;;5016125;28;20030;-91
2021/11/20 02:03:33;;;;;;;1999.90;999.90;;;;;;;;;;4998974;28;20483;-89
2021/11/20 02:06:08;;;;;;;1999.90;999.90;;;;;;;;;;5001651;28;20044;-91
2021/11/20 02:08:44;;;;;;;1999.90;999.90;;;;;;;;;;4999790;28;20353;-91
2021/11/20 02:11:20;;;;;;;1999.90;999.90;;;;;;;;;;5015569;28;20073;-91
2021/11/20 02:13:46;;;;;;;1999.90;999.90;;;;;;;;;;4984407;28;20466;-91
2021/11/20 02:16:18;;;;;;;1999.90;999.90;;;;;;;;;;4983874;28;20037;-91
2021/11/20 02:18:47;;;;;;;;;;;;;;;;;;4984056;28;20068;-90
2021/11/20 02:21:36;;;;;;;1999.90;999.90;;;;;;;;;;5000216;28;19921;-92
2021/11/20 02:24:02;;;;;;;1999.90;999.90;;;;;;;;;;5015853;28;20037;-91
2021/11/20 02:26:29;;;;;;;1999.90;999.90;;;;;;;;;;5015735;28;20026;-91
2021/11/20 02:28:58;;;;;;;1999.90;999.90;;;;;;;;;;5015756;28;20037;-91
2021/11/20 02:31:25;;;;;;;1999.90;999.90;;;;;;;;;;4983575;28;20037;-92
2021/11/20 02:33:51;;;;;;;1999.90;999.90;;;;;;;;;;4996186;28;20037;-92
2021/11/20 02:36:19;;;;;;;1999.90;999.90;;;;;;;;;;4980393;28;20560;-91
2021/11/20 02:39:07;;;;;;;1999.90;999.90;;;;;;;;;;4980178;28;20488;-92
2021/11/20 02:41:36;;;;;;;1999.90;999.90;;;;;;;;;;4979968;28;20500;-89
2021/11/20 02:44:05;;;;;;;1999.90;999.90;;;;;;;;;;4979725;28;20036;-90
2021/11/20 02:46:37;;;;;;;1999.90;999.90;;;;;;;;;;4963843;28;20026;-89
2021/11/20 02:49:02;;;;;;;1999.90;999.90;;;;;;;;;;4979474;28;20129;-91
2021/11/20 02:51:32;;;;;;;1999.90;999.90;;;;;;;;;;4979680;28;20137;-90
2021/11/20 02:54:08;;;;;;;1999.90;999.90;;;;;;;;;;4983353;28;20033;-91
2021/11/20 02:57:05;;;;;;;1999.90;999.90;;;;;;;;;;4999282;28;20033;-90
2021/11/20 02:59:37;;;;;;;1999.90;999.90;;;;;;;;;;5002771;28;20416;-91
2021/11/20 03:02:04;;;;;;;1999.90;999.90;;;;;;;;;;5015134;28;20514;-91
2021/11/20 03:04:31;;;;;;;1999.90;999.90;;;;;;;;;;4983090;28;20143;-90
2021/11/20 03:06:58;;;;;;;1999.90;999.90;;;;;;;;;;4983200;28;20036;-91
2021/11/20 03:09:27;;;;;;;1999.90;999.90;;;;;;;;;;4982634;28;20029;-92
2021/11/20 03:11:54;;;;;;;1999.90;999.90;;;;;;;;;;4983246;28;20033;-91
2021/11/20 03:14:22;;;;;;;1999.90;999.90;;;;;;;;;;4982934;28;20094;-90
2021/11/20 03:16:51;;;;;;;1999.90;999.90;;;;;;;;;;4983260;28;20504;-91
2021/11/20 03:19:16;;;;;;;1999.90;999.90;;;;;;;;;;4983032;28;20037;-90
2021/11/20 03:21:48;;;;;;;1999.90;999.90;;;;;;;;;;4995530;28;20046;-91
2021/11/20 03:24:17;;;;;;;1999.90;999.90;;;;;;;;;;4979970;28;20037;-90
2021/11/20 03:26:45;;;;;;;1999.90;999.90;;;;;;;;;;4979149;28;20115;-90
2021/11/20 03:29:13;;;;;;;1999.90;999.90;;;;;;;;;;4988546;28;20037;-91
2021/11/20 03:31:41;;;;;;;1999.90;999.90;;;;;;;;;;5015042;28;20034;-90
2021/11/20 03:34:08;;;;;;;1999.90;999.90;;;;;;;;;;5015383;28;20050;-90
2021/11/20 03:36:37;;;;;;;1999.90;999.90;;;;;;;;;;5015010;28;20121;-91
2021/11/20 03:39:06;;;;;;;1999.90;999.90;;;;;;;;;;5015558;28;20053;-90
2021/11/20 03:41:33;;;;;;;1999.90;999.90;;;;;;;;;;4983067;28;20037;-91
2021/11/20 03:44:01;;;;;;;1999.90;999.90;;;;;;;;;;4998819;28;20044;-90
2021/11/20 03:46:30;;;;;;;1999.90;999.90;;;;;;;;;;5015150;28;20127;-91
2021/11/20 03:48:55;;;;;;;1999.90;999.90;;;;;;;;;;4981962;28;20041;-89
2021/11/20 03:51:22;;;;;;;1999.90;999.90;;;;;;;;;;5014917;28;20067;-89
2021/11/20 03:53:49;;;;;;;1999.90;999.90;;;;;;;;;;5015113;28;20033;-91
2021/11/20 03:56:15;;;;;;;1999.90;999.90;;;;;;;;;;4998470;28;20124;-90
2021/11/20 03:58:44;;;;;;;1999.90;999.90;;;;;;;;;;5014950;28;20029;-91
2021/11/20 04:01:15;;;;;;;1999.90;999.90;;;;;;;;;;5017101;28;20041;-91
2021/11/20 04:03:43;;;;;;;1999.90;999.90;;;;;;;;;;4986052;28;20052;-90
2021/11/20 04:06:15;;;;;;;1999.90;999.90;;;;;;;;;;4986281;28;20400;-91
2021/11/20 04:08:48;;;;;;;1999.90;999.90;;;;;;;;;;4986938;28;20521;-91
2021/11/20 04:11:17;;;;;;;1999.90;999.90;;;;;;;;;;5001823;28;20044;-91
2021/11/20 04:13:46;;;;;;;1999.90;999.90;;;;;;;;;;4986416;28;20025;-91
2021/11/20 04:16:12;;;;;;;1999.90;999.90;;;;;;;;;;5002228;28;20037;-90
2021/11/20 04:18:42;;;;;;;1999.90;999.90;;;;;;;;;;5018424;28;20030;-92
2021/11/20 04:21:14;;;;;;;1999.90;999.90;;;;;;;;;;5018346;28;20101;-91
2021/11/20 04:23:45;;;;;;;1999.90;999.90;;;;;;;;;;5018716;28;20053;-91
2021/11/20 04:26:16;;;;;;;1999.90;999.90;;;;;;;;;;5001925;28;20040;-91
2021/11/20 04:28:42;;;;;;;1999.90;999.90;;;;;;;;;;5018242;28;20029;-90
2021/11/20 04:31:08;;;;;;;1999.90;999.90;;;;;;;;;;5017894;28;20052;-91
2021/11/20 04:33:35;;;;;;;1999.90;999.90;;;;;;;;;;5018019;28;20467;-91
2021/11/20 04:36:03;;;;;;;1999.90;999.90;;;;;;;;;;5018497;28;20040;-91
2021/11/20 04:38:31;;;;;;;1999.90;999.90;;;;;;;;;;4985771;28;20029;-91
2021/11/20 04:40:59;;;;;;;1999.90;999.90;;;;;;;;;;4985543;28;20040;-91
2021/11/20 04:43:26;;;;;;;1999.90;999.90;;;;;;;;;;5001311;28;20048;-89
2021/11/20 04:45:55;;;;;;;1999.90;999.90;;;;;;;;;;4985396;28;20071;-91
2021/11/20 04:48:22;;;;;;;1999.90;999.90;;;;;;;;;;4985383;28;20070;-91
2021/11/20 04:50:48;;;;;;;1999.90;999.90;;;;;;;;;;4984938;28;20570;-89
2021/11/20 04:53:15;;;;;;;1999.90;999.90;;;;;;;;;;4985295;28;20041;-90
2021/11/20 04:55:41;;;;;;;1999.90;999.90;;;;;;;;;;4985118;28;20038;-91
2021/11/20 04:58:08;;;;;;;1999.90;999.90;;;;;;;;;;4984365;28;20056;-90
2021/11/20 05:00:38;;;;;;;1999.90;999.90;;;;;;;;;;4989833;28;20037;-93
2021/11/20 05:03:07;;;;;;;1999.90;999.90;;;;;;;;;;5004174;28;20048;-91
2021/11/20 05:05:36;;;;;;;1999.90;999.90;;;;;;;;;;5005095;28;20388;-91
2021/11/20 05:08:03;;;;;;;1999.90;999.90;;;;;;;;;;5003329;28;20033;-91
2021/11/20 05:10:29;;;;;;;1999.90;999.90;;;;;;;;;;5019914;28;20044;-92
2021/11/20 05:12:55;;;;;;;1999.90;999.90;;;;;;;;;;5003797;28;20110;-90
2021/11/20 05:15:22;;;;;;;1999.90;999.90;;;;;;;;;;5004408;28;20037;-91
2021/11/20 05:17:48;;;;;;;1999.90;999.90;;;;;;;;;;5003893;28;20025;-91
2021/11/20 05:20:13;;;;;;;1999.90;999.90;;;;;;;;;;4980348;28;20034;-91
2021/11/20 05:22:39;;;;;;;1999.90;999.90;;;;;;;;;;4981273;28;20034;-91
2021/11/20 05:25:06;;;;;;;1999.90;999.90;;;;;;;;;;4981017;28;20048;-91
2021/11/20 05:27:33;;;;;;;1999.90;999.90;;;;;;;;;;4980834;28;20030;-91
2021/11/20 05:30:06;;;;;;;1999.90;999.90;;;;;;;;;;4980634;28;20088;-92
2021/11/20 05:32:32;;;;;;;1999.90;999.90;;;;;;;;;;4998961;28;20034;-91
2021/11/20 05:34:58;;;;;;;1999.90;999.90;;;;;;;;;;5016657;28;20037;-91
2021/11/20 05:37:23;;;;;;;1999.90;999.90;;;;;;;;;;5017283;28;20059;-91
2021/11/20 05:39:49;;;;;;;1999.90;999.90;;;;;;;;;;5033945;28;20415;-91
2021/11/20 05:42:15;;;;;;;1999.90;999.90;;;;;;;;;;5019770;28;20025;-91
2021/11/20 05:44:41;;;;;;;1999.90;999.90;;;;;;;;;;5003444;28;20059;-91
2021/11/20 05:47:07;;;;;;;1999.90;999.90;;;;;;;;;;5003252;28;20174;-91
2021/11/20 05:49:34;;;;;;;1999.90;999.90;;;;;;;;;;5003183;28;20040;-91
2021/11/20 05:52:02;;;;;;;1999.90;999.90;;;;;;;;;;4996773;28;20092;-91
2021/11/20 05:54:28;;;;;;;1999.90;999.90;;;;;;;;;;4978546;28;20038;-91
2021/11/20 05:56:54;;;;;;;1999.90;999.90;;;;;;;;;;5015954;28;20434;-91
2021/11/20 05:59:22;;;;;;;1999.90;999.90;;;;;;;;;;4982977;28;20451;-89
2021/11/20 06:01:50;;;;;;;1999.90;999.90;;;;;;;;;;4995633;28;20034;-89
2021/11/20 06:04:15;;;;;;;1999.90;999.90;;;;;;;;;;4980735;28;20049;-88
2021/11/20 06:06:41;;;;;;;1999.90;999.90;;;;;;;;;;4968330;28;20068;-89
2021/11/20 06:09:09;;;;;;;1999.90;999.90;;;;;;;;;;4999286;28;20029;-89
2021/11/20 06:11:38;;;;;;;1999.90;999.90;;;;;;;;;;4999088;28;20033;-86
2021/11/20 06:14:06;;;;;;;1999.90;999.90;;;;;;;;;;5016043;28;20092;-91
2021/11/20 06:16:32;;;;;;;1999.90;999.90;;;;;;;;;;5016501;28;20124;-91
2021/11/20 06:18:58;;;;;;;1999.90;999.90;;;;;;;;;;5014743;28;20120;-91
2021/11/20 06:21:26;;;;;;;1999.90;999.90;;;;;;;;;;4998853;28;20447;-91
2021/11/20 06:23:52;;;;;;;1999.90;999.90;;;;;;;;;;4982407;28;20056;-90
2021/11/20 06:26:18;;;;;;;1999.90;999.90;;;;;;;;;;5015848;28;20057;-90
2021/11/20 06:28:47;;;;;;;1999.90;999.90;;;;;;;;;;4999323;28;20048;-91
2021/11/20 06:31:13;;;;;;;1999.90;999.90;;;;;;;;;;4982927;28;20034;-92
2021/11/20 06:33:43;;;;;;;1999.90;999.90;;;;;;;;;;4983200;28;20033;-93
2021/11/20 06:36:10;;;;;;;1999.90;999.90;;;;;;;;;;4999965;28;20030;-90
2021/11/20 06:38:39;;;;;;;1999.90;999.90;;;;;;;;;;5015236;28;20037;-83
2021/11/20 06:41:06;;;;;;;1999.90;999.90;;;;;;;;;;4980746;28;20029;-92
2021/11/20 06:43:32;;;;;;;1999.90;999.90;;;;;;;;;;4996031;28;20057;-91
2021/11/20 06:46:02;;;;;;;1999.90;999.90;;;;;;;;;;4979695;28;20030;-92
2021/11/20 06:48:28;;;;;;;1999.90;999.90;;;;;;;;;;4980291;28;20030;-89
2021/11/20 06:50:57;;;;;;;1999.90;999.90;;;;;;;;;;4998826;28;20037;-92
2021/11/20 06:53:23;;;;;;;1999.90;999.90;;;;;;;;;;4999383;28;20471;-92
2021/11/20 06:55:51;;;;;;;1999.90;999.90;;;;;;;;;;4983263;28;20060;-93
2021/11/20 07:00:52;;;;;;;1999.90;999.90;;;;;;;;;;5028382;28;20029;-93
2021/11/20 07:03:28;;;;;;;1999.90;999.90;;;;;;;;;;4979826;28;20056;-93
2021/11/20 07:05:58;;;;;;;1999.90;999.90;;;;;;;;;;4996447;28;20467;-94
2021/11/20 07:08:26;;;;;;;1999.90;999.90;;;;;;;;;;4999120;28;20033;-93
2021/11/20 07:10:53;;;;;;;1999.90;999.90;;;;;;;;;;4982392;28;20120;-93
2021/11/20 07:13:20;;;;;;;1999.90;999.90;;;;;;;;;;4985531;28;20041;-93
2021/11/20 07:15:47;;;;;;;1999.90;999.90;;;;;;;;;;4979590;28;20045;-92
2021/11/20 07:18:16;;;;;;;1999.90;999.90;;;;;;;;;;4979825;28;20065;-93
2021/11/20 07:20:45;;;;;;;1999.90;999.90;;;;;;;;;;4979924;28;20033;-93
2021/11/20 07:23:12;;;;;;;1999.90;999.90;;;;;;;;;;5000016;28;20041;-93
2021/11/20 07:25:41;;;;;;;1999.90;999.90;;;;;;;;;;4979402;28;20400;-93
2021/11/20 07:28:09;;;;;;;1999.90;999.90;;;;;;;;;;5006578;28;20492;-93
2021/11/20 07:30:37;;;;;;;1999.90;999.90;;;;;;;;;;4982803;28;20397;-93
2021/11/20 07:33:04;;;;;;;1999.90;999.90;;;;;;;;;;4982953;28;20449;-92
2021/11/20 07:35:33;;;;;;;1999.90;999.90;;;;;;;;;;5000033;28;20419;-94
2021/11/20 07:38:00;;;;;;;1999.90;999.90;;;;;;;;;;4994525;28;20416;-86
2021/11/20 07:40:28;;;;;;;1999.90;999.90;;;;;;;;;;5001065;28;20523;-85
2021/11/20 07:42:54;;;;;;;1999.90;999.90;;;;;;;;;;5000749;28;20052;-86
2021/11/20 07:45:20;;;;;;;1999.90;999.90;;;;;;;;;;5000942;28;20069;-86
2021/11/20 07:47:46;;;;;;;1999.90;999.90;;;;;;;;;;5025619;28;20029;-85
2021/11/20 07:50:11;;;;;;;1999.90;999.90;;;;;;;;;;5014746;28;20121;-86
2021/11/20 07:52:38;;;;;;;1999.90;999.90;;;;;;;;;;5018104;28;20034;-88
2021/11/20 07:55:05;;;;;;;1999.90;999.90;;;;;;;;;;5002062;28;20032;-89
2021/11/20 07:57:33;;;;;;;1999.90;999.90;;;;;;;;;;5001799;28;20045;-89
2021/11/20 08:00:01;;;;;;;1999.90;999.90;;;;;;;;;;4985715;28;20041;-88
2021/11/20 08:02:29;;;;;;;1999.90;999.90;;;;;;;;;;5001661;28;20120;-89
2021/11/20 08:04:56;;;;;;;1999.90;999.90;;;;;;;;;;5018346;28;20045;-88
2021/11/20 08:07:23;;;;;;;1999.90;999.90;;;;;;;;;;5017366;28;20052;-86
2021/11/20 08:09:51;;;;;;;1999.90;999.90;;;;;;;;;;5013431;28;20036;-89
2021/11/20 08:12:17;;;;;;;1999.90;999.90;;;;;;;;;;4987042;28;20042;-88
2021/11/20 08:14:43;;;;;;;1999.90;999.90;;;;;;;;;;4996429;28;20040;-87
2021/11/20 08:17:10;;;;;;;1999.90;999.90;;;;;;;;;;4997877;28;20048;-88
2021/11/20 08:19:36;;;;;;;1999.90;999.90;;;;;;;;;;4998211;28;20054;-88
2021/11/20 08:22:04;;;;;;;1999.90;999.90;;;;;;;;;;4982310;28;20049;-88
2021/11/20 08:24:33;;;;;;;1999.90;999.90;;;;;;;;;;4998022;28;20504;-88
2021/11/20 08:26:59;;;;;;;1999.90;999.90;;;;;;;;;;4997834;28;20038;-88
2021/11/20 08:29:29;;;;;;;1999.90;999.90;;;;;;;;;;4997536;28;20132;-88
2021/11/20 08:31:55;;;;;;;1999.90;999.90;;;;;;;;;;4998991;28;20069;-88
2021/11/20 08:34:23;;;;;;;1999.90;999.90;;;;;;;;;;4998363;28;20132;-86
2021/11/20 08:36:52;;;;;;;1999.90;999.90;;;;;;;;;;4997923;28;20029;-88
2021/11/20 08:39:19;;;;;;;1999.90;999.90;;;;;;;;;;4981790;28;20092;-89
2021/11/20 08:41:45;;;;;;;1999.90;999.90;;;;;;;;;;5000856;28;20041;-88
2021/11/20 08:44:12;;;;;;;1999.90;999.90;;;;;;;;;;4984849;28;20530;-88
2021/11/20 08:46:40;;;;;;;1999.90;999.90;;;;;;;;;;5000570;28;20087;-89
2021/11/20 08:49:07;;;;;;;1999.90;999.90;;;;;;;;;;4985161;28;20045;-89
2021/11/20 08:51:32;;;;;;;1999.90;999.90;;;;;;;;;;4985013;28;20033;-89
2021/11/20 08:53:59;;;;;;;1999.90;999.90;;;;;;;;;;5000898;28;20041;-88
2021/11/20 08:56:26;;;;;;;1999.90;999.90;;;;;;;;;;5000855;28;20102;-91
2021/11/20 08:58:51;;;;;;;1999.90;999.90;;;;;;;;;;4985080;28;20037;-91
2021/11/20 09:01:33;;;;;;;1999.90;999.90;;;;;;;;;;4981585;28;20030;-90
2021/11/20 09:04:29;;;;;;;1999.90;999.90;;;;;;;;;;5014045;28;20108;-91
2021/11/20 09:06:59;;;;;;;1999.90;999.90;;;;;;;;;;4988884;28;20705;-90
2021/11/20 09:09:41;;;;;;;1999.90;999.90;;;;;;;;;;5015596;28;20041;-89
2021/11/20 09:12:37;;;;;;;1999.90;999.90;;;;;;;;;;5001389;28;20061;-91
2021/11/20 09:15:30;;;;;;;1999.90;999.90;;;;;;;;;;5000925;28;20280;-92
2021/11/20 09:17:59;;;;;;;1999.90;999.90;;;;;;;;;;5017350;28;20039;-92
2021/11/20 09:20:26;;;;;;;1999.90;999.90;;;;;;;;;;5001188;28;20033;-93
2021/11/20 09:22:51;;;;;;;1999.90;999.90;;;;;;;;;;5000969;28;20092;-92
2021/11/20 09:25:20;;;;;;;1999.90;999.90;;;;;;;;;;5000505;28;20064;-92
2021/11/20 09:27:50;;;;;;;1999.90;999.90;;;;;;;;;;5000539;28;20033;-92
2021/11/20 09:30:21;;;;;;;1999.90;999.90;;;;;;;;;;5000541;28;20037;-92
2021/11/20 09:32:47;;;;;;;1999.90;999.90;;;;;;;;;;5000576;28;20033;-92
2021/11/20 09:35:16;;;;;;;1999.90;999.90;;;;;;;;;;5000772;28;20037;-92
2021/11/20 09:37:42;;;;;;;1999.90;999.90;;;;;;;;;;5000539;28;20136;-92
2021/11/20 09:40:10;;;;;;;1999.90;999.90;;;;;;;;;;5000096;28;20117;-92
2021/11/20 09:42:55;;;;;;;1999.90;999.90;;;;;;;;;;5000927;28;20033;-92
2021/11/20 09:45:29;;;;;;;1999.90;999.90;;;;;;;;;;5000465;28;20083;-93
2021/11/20 09:47:59;;;;;;;1999.90;999.90;;;;;;;;;;5000701;28;20036;-93
2021/11/20 09:51:03;;;;;;;1999.90;999.90;;;;;;;;;;5000545;28;20152;-92
2021/11/20 09:53:31;;;;;;;;;;;;;;;;;;5005442;28;20091;-91
2021/11/20 09:56:09;;;;;;;1999.90;999.90;;;;;;;;;;5016440;28;19909;-92
2021/11/20 09:58:41;;;;;;;1999.90;999.90;;;;;;;;;;4999715;28;20036;-92
2021/11/20 10:01:47;;;;;;;1999.90;999.90;;;;;;;;;;5001632;28;20496;-92
2021/11/20 10:04:23;;;;;;;1999.90;999.90;;;;;;;;;;5019354;28;20033;-93
2021/11/20 10:06:53;;;;;;;1999.90;999.90;;;;;;;;;;5019580;28;20101;-92
2021/11/20 10:09:28;;;;;;;1999.90;999.90;;;;;;;;;;4982814;28;20463;-92
2021/11/20 10:11:58;;;;;;;1999.90;999.90;;;;;;;;;;4997303;28;20033;-92
2021/11/20 10:14:47;;;;;;;1999.90;999.90;;;;;;;;;;5012656;28;20600;-93
2021/11/20 10:17:20;;;;;;;1999.90;999.90;;;;;;;;;;5012900;28;20547;-93
2021/11/20 10:19:50;;;;;;;1999.90;999.90;;;;;;;;;;4980833;28;20030;-93
2021/11/20 10:22:27;;;;;;;1999.90;999.90;;;;;;;;;;5012201;28;20389;-92
2021/11/20 10:25:24;;;;;;;1999.90;999.90;;;;;;;;;;4996979;28;20026;-92
2021/11/20 10:27:56;;;;;;;1999.90;999.90;;;;;;;;;;4981318;28;20033;-92
2021/11/20 10:30:59;;;;;;;1999.90;999.90;;;;;;;;;;5012321;28;20030;-92
2021/11/20 10:33:49;;;;;;;1999.90;999.90;;;;;;;;;;5012221;28;20427;-92
2021/11/20 10:36:34;;;;;;;1999.90;999.90;;;;;;;;;;5012762;28;20061;-92
2021/11/20 10:39:05;;;;;;;1999.90;999.90;;;;;;;;;;4980731;28;20457;-91
2021/11/20 10:41:51;;;;;;;1999.90;999.90;;;;;;;;;;5012447;28;20041;-92
2021/11/20 10:44:32;;;;;;;1999.90;999.90;;;;;;;;;;5012278;28;20392;-92
2021/11/20 10:47:14;;;;;;;1999.90;999.90;;;;;;;;;;5012757;28;20415;-92
2021/11/20 10:50:04;;;;;;;1999.90;999.90;;;;;;;;;;5012271;28;20117;-92
2021/11/20 10:52:57;;;;;;;1999.90;999.90;;;;;;;;;;4996924;28;20416;-92
2021/11/20 10:55:51;;;;;;;1999.90;999.90;;;;;;;;;;4995628;28;20049;-92
2021/11/20 10:58:36;;;;;;;1999.90;999.90;;;;;;;;;;5012248;28;20029;-92
2021/11/20 11:01:34;;;;;;;1999.90;999.90;;;;;;;;;;5014270;28;20091;-93
2021/11/20 11:04:57;;;;;;;1999.90;999.90;;;;;;;;;;5007464;28;20463;-92
2021/11/20 11:07:40;;;;;;;1999.90;999.90;;;;;;;;;;4994602;28;20523;-91
2021/11/20 11:10:12;;;;;;;1999.90;999.90;;;;;;;;;;4962179;28;20405;-93
2021/11/20 11:12:54;;;;;;;1999.90;999.90;;;;;;;;;;4967988;28;20401;-93
2021/11/20 11:15:34;;;;;;;1999.90;999.90;;;;;;;;;;4999004;28;20038;-92
2021/11/20 11:18:25;;;;;;;1999.90;999.90;;;;;;;;;;4984109;28;20038;-93
2021/11/20 11:21:39;;;;;;;1999.90;999.90;;;;;;;;;;4999038;28;20128;-92
2021/11/20 11:24:24;;;;;;;1999.90;999.90;;;;;;;;;;4975083;28;20042;-92
2021/11/20 11:27:09;;;;;;;1999.90;999.90;;;;;;;;;;5015622;28;20495;-92
2021/11/20 11:30:14;;;;;;;1999.90;999.90;;;;;;;;;;5015177;28;20033;-92
2021/11/20 11:32:44;;;;;;;1999.90;999.90;;;;;;;;;;4997075;28;20077;-93
2021/11/20 11:35:17;;;;;;;1999.90;999.90;;;;;;;;;;4993513;28;20054;-91
2021/11/20 11:37:58;;;;;;;1999.90;999.90;;;;;;;;;;4998813;28;20038;-92
2021/11/20 11:40:46;;;;;;;1999.90;999.90;;;;;;;;;;5014926;28;20427;-92
2021/11/20 11:43:20;;;;;;;1999.90;999.90;;;;;;;;;;4998767;28;20037;-91
2021/11/20 11:45:47;;;;;;;1999.90;999.90;;;;;;;;;;5015340;28;20068;-92
2021/11/20 11:48:25;;;;;;;1999.90;999.90;;;;;;;;;;5015086;28;20041;-92
2021/11/20 11:51:13;;;;;;;1999.90;999.90;;;;;;;;;;4984283;28;20518;-91
2021/11/20 11:53:59;;;;;;;1999.90;999.90;;;;;;;;;;5014838;28;20452;-91
2021/11/20 11:56:37;;;;;;;1999.90;999.90;;;;;;;;;;5015198;28;20072;-92
2021/11/20 11:59:40;;;;;;;1999.90;999.90;;;;;;;;;;4983155;28;20029;-92
2021/11/20 12:02:22;;;;;;;;;;;;;;;;;;5011837;28;20384;-91
2021/11/20 12:04:55;;;;;;;1999.90;999.90;;;;;;;;;;4994938;28;20296;-91
2021/11/20 12:08:00;;;;;;;1999.90;999.90;;;;;;;;;;4997060;28;20049;-92
2021/11/20 12:10:32;;;;;;;1999.90;999.90;;;;;;;;;;4998792;28;20067;-92
2021/11/20 12:13:04;;;;;;;;;;;;;;;;;;4998849;28;20046;-91
2021/11/20 12:15:49;;;;;;;1999.90;999.90;;;;;;;;;;5015142;28;19998;-91
2021/11/20 12:18:25;;;;;;;1999.90;999.90;;;;;;;;;;4999261;28;20040;-92
2021/11/20 12:21:19;;;;;;;1999.90;999.90;;;;;;;;;;5014652;28;20415;-93
2021/11/20 12:23:55;;;;;;;1999.90;999.90;;;;;;;;;;5001512;28;20427;-92
2021/11/20 12:26:40;;;;;;;1999.90;999.90;;;;;;;;;;5018684;28;20044;-92
2021/11/20 12:30:02;;;;;;;1999.90;999.90;;;;;;;;;;5018073;28;20049;-91
2021/11/20 12:32:43;;;;;;;1999.90;999.90;;;;;;;;;;4977532;28;20112;-92
2021/11/20 12:35:11;;;;;;;1999.90;999.90;;;;;;;;;;4978115;28;20038;-91
2021/11/20 12:37:55;;;;;;;1999.90;999.90;;;;;;;;;;5006476;28;20475;-92
2021/11/20 12:40:51;;;;;;;1999.90;999.90;;;;;;;;;;5017792;28;20033;-92
2021/11/20 12:43:34;;;;;;;1999.90;999.90;;;;;;;;;;5001076;28;20029;-92
2021/11/20 12:46:29;;;;;;;1999.90;999.90;;;;;;;;;;5019095;28;20033;-92
2021/11/20 12:49:24;;;;;;;1999.90;999.90;;;;;;;;;;5015127;28;20056;-91
2021/11/20 12:52:09;;;;;;;1999.90;999.90;;;;;;;;;;5017772;28;20038;-91
2021/11/20 12:54:44;;;;;;;1999.90;999.90;;;;;;;;;;5018052;28;20538;-92
2021/11/20 12:57:39;;;;;;;1999.90;999.90;;;;;;;;;;5017462;28;20042;-91
2021/11/20 13:00:22;;;;;;;1999.90;999.90;;;;;;;;;;5017890;28;20047;-91
2021/11/20 13:03:25;;;;;;;1999.90;999.90;;;;;;;;;;4997088;28;20135;-92
2021/11/20 13:06:23;;;;;;;1999.90;999.90;;;;;;;;;;4997747;28;20033;-90
2021/11/20 13:08:53;;;;;;;1999.90;999.90;;;;;;;;;;5008633;28;20411;-91
2021/11/20 13:11:31;;;;;;;1999.90;999.90;;;;;;;;;;4985334;28;20120;-91
2021/11/20 13:14:15;;;;;;;1999.90;999.90;;;;;;;;;;5001481;28;20459;-90
2021/11/20 13:16:59;;;;;;;1999.90;999.90;;;;;;;;;;5000702;28;20041;-92
2021/11/20 13:19:47;;;;;;;1999.90;999.90;;;;;;;;;;5017168;28;20471;-91
2021/11/20 13:22:23;;;;;;;1999.90;999.90;;;;;;;;;;4985284;28;20053;-90
2021/11/20 13:24:51;;;;;;;1999.90;999.90;;;;;;;;;;4985092;28;20407;-90
2021/11/20 13:27:39;;;;;;;1999.90;999.90;;;;;;;;;;5000959;28;20038;-92
2021/11/20 13:30:16;;;;;;;1999.90;999.90;;;;;;;;;;5017033;28;20492;-91
2021/11/20 13:32:48;;;;;;;1999.90;999.90;;;;;;;;;;5000081;28;20095;-91
2021/11/20 13:35:20;;;;;;;1999.90;999.90;;;;;;;;;;4985521;28;20079;-91
2021/11/20 13:38:02;;;;;;;1999.90;999.90;;;;;;;;;;4984804;28;20420;-90
2021/11/20 13:40:34;;;;;;;1999.90;999.90;;;;;;;;;;4985423;28;20491;-91
2021/11/20 13:43:02;;;;;;;1999.90;999.90;;;;;;;;;;4985450;28;20042;-91
2021/11/20 13:45:30;;;;;;;1999.90;999.90;;;;;;;;;;4984484;28;20044;-91
2021/11/20 13:47:57;;;;;;;1999.90;999.90;;;;;;;;;;4984334;28;20083;-91
2021/11/20 13:50:28;;;;;;;1999.90;999.90;;;;;;;;;;4984042;28;20037;-91
2021/11/20 13:52:55;;;;;;;1999.90;999.90;;;;;;;;;;4984477;28;20043;-91
2021/11/20 13:55:25;;;;;;;1999.90;999.90;;;;;;;;;;4984411;28;20068;-92
2021/11/20 13:57:52;;;;;;;1999.90;999.90;;;;;;;;;;4984006;28;20099;-91
2021/11/20 14:00:20;;;;;;;1999.90;999.90;;;;;;;;;;4983834;28;20088;-91
2021/11/20 14:02:56;;;;;;;1999.90;999.90;;;;;;;;;;4980590;28;20037;-91
2021/11/20 14:05:22;;;;;;;1999.90;999.90;;;;;;;;;;4996823;28;20049;-91
2021/11/20 14:07:49;;;;;;;1999.90;999.90;;;;;;;;;;4985185;28;20026;-90
2021/11/20 14:10:36;;;;;;;1999.90;999.90;;;;;;;;;;4983991;28;20037;-91
2021/11/20 14:13:06;;;;;;;1999.90;999.90;;;;;;;;;;4987026;28;20087;-90
2021/11/20 14:15:44;;;;;;;1999.90;999.90;;;;;;;;;;4984456;28;20025;-91
2021/11/20 14:18:13;;;;;;;1999.90;999.90;;;;;;;;;;5016146;28;20529;-90